Fletcher, North Carolina
Current Conditions -  °F | °C
As of 11:54 AM on Sunday 21 Dec 2014 (Local Time) from KAVL Reporting Station
Overcast Overcast  
Wind Chill: 41°   Ceiling: 1700
Heat Index: 44°   Visibility: 10mi
Dew Point: 37°   Wind: 6mph
Humidity: 76%   Direction: 180°S
Pressure: 30.2"   Gusts: NA
Location:  35.43°N, 82.5°W
Report Text: KAVL 211654Z 18005KT 10SM OVC017 07/03 A3020 RMK AO2 SLP228 T00670028
Loading
Personal Weather Stations






























Interactive Weather Map New forecast layout! Learn more

10-Day Weather Forecast

Advertisements
Track Severe Weather on mobile